Time;durP1;ratioP1;P1;durP2;ratioP2;P2;SDS_P1;SDS_P2;PMS_P1;PMS_P2;Temp;Humidity;BMP_temperature;BMP_pressure;BME280_temperature;BME280_humidity;BME280_pressure;Samples;Min_cycle;Max_cycle;Signal;HPM_P1;HPM_P2
2021/08/06 00:00:30;;;;;;;3.57;3.17;;;17.20;99.90;;;;;;5041505;28;20221;-84
2021/08/06 00:02:59;;;;;;;3.67;3.37;;;17.20;99.90;;;;;;5046826;28;20263;-83
2021/08/06 00:05:27;;;;;;;3.53;3.23;;;17.20;99.90;;;;;;5046954;28;20784;-84
2021/08/06 00:07:55;;;;;;;3.93;3.60;;;17.20;99.90;;;;;;5047026;28;20753;-83
2021/08/06 00:10:26;;;;;;;3.90;3.50;;;17.20;99.90;;;;;;5047316;28;20229;-83
2021/08/06 00:12:54;;;;;;;6.63;3.47;;;17.20;99.90;;;;;;5064032;28;20592;-84
2021/08/06 00:15:22;;;;;;;3.50;3.20;;;17.30;99.90;;;;;;5055073;28;20269;-83
2021/08/06 00:17:51;;;;;;;3.83;3.33;;;17.20;99.90;;;;;;5028827;28;20629;-83
2021/08/06 00:20:19;;;;;;;3.57;3.20;;;17.10;99.90;;;;;;5031596;28;20251;-84
2021/08/06 00:22:47;;;;;;;4.17;3.67;;;17.10;99.90;;;;;;5050238;28;20280;-83
2021/08/06 00:25:15;;;;;;;3.53;2.90;;;17.10;99.90;;;;;;5050502;28;20248;-84
2021/08/06 00:27:44;;;;;;;4.00;3.10;;;17.10;99.90;;;;;;5066704;28;20238;-84
2021/08/06 00:30:13;;;;;;;3.30;3.00;;;17.00;99.90;;;;;;5071065;28;20289;-84
2021/08/06 00:32:42;;;;;;;3.53;3.30;;;17.00;99.90;;;;;;5061793;28;20236;-82
2021/08/06 00:35:16;;;;;;;3.17;2.97;;;17.00;99.90;;;;;;5050506;28;20236;-83
2021/08/06 00:37:47;;;;;;;6.90;3.63;;;17.00;99.90;;;;;;5049705;28;20342;-82
2021/08/06 00:40:16;;;;;;;3.20;3.00;;;17.00;99.90;;;;;;5049451;28;20337;-83
2021/08/06 00:42:47;;;;;;;3.70;3.40;;;17.00;99.90;;;;;;5064486;28;20494;-83
2021/08/06 00:45:23;;;;;;;3.40;3.10;;;17.00;99.90;;;;;;5068919;28;20314;-83
2021/08/06 00:47:55;;;;;;;3.53;3.23;;;17.00;99.90;;;;;;5051281;28;20235;-83
2021/08/06 00:50:24;;;;;;;3.27;2.97;;;16.90;99.90;;;;;;5049410;28;20284;-82
2021/08/06 00:52:52;;;;;;;3.70;3.40;;;16.80;99.90;;;;;;5064985;28;20229;-82
2021/08/06 00:55:22;;;;;;;6.30;3.47;;;16.80;99.90;;;;;;5069029;28;20616;-82
2021/08/06 00:58:05;;;;;;;4.40;3.40;;;16.80;99.90;;;;;;5058418;28;20244;-83
2021/08/06 01:00:33;;;;;;;3.70;3.40;;;16.90;99.90;;;;;;5065569;28;20244;-83
2021/08/06 01:03:06;;;;;;;3.60;3.40;;;16.80;99.90;;;;;;5048328;28;20236;-82
2021/08/06 01:05:41;;;;;;;3.53;3.23;;;16.80;99.90;;;;;;5048754;28;20293;-82
2021/08/06 01:08:13;;;;;;;3.93;3.40;;;16.80;99.90;;;;;;5061075;28;20236;-82
2021/08/06 01:10:47;;;;;;;3.53;3.23;;;16.80;99.90;;;;;;5048622;28;20264;-83
2021/08/06 01:13:26;;;;;;;4.10;3.70;;;16.80;99.90;;;;;;5027892;28;20232;-83
2021/08/06 01:15:59;;;;;;;4.07;3.67;;;16.70;99.90;;;;;;5030245;28;20233;-81
2021/08/06 01:18:32;;;;;;;3.80;3.50;;;16.70;99.90;;;;;;5059688;28;20235;-81
2021/08/06 01:21:09;;;;;;;4.40;3.40;;;16.70;99.90;;;;;;5049723;28;20745;-83
2021/08/06 01:23:41;;;;;;;3.90;3.50;;;16.70;99.90;;;;;;5055946;28;20806;-82
2021/08/06 01:26:15;;;;;;;3.60;3.30;;;16.70;99.90;;;;;;5048711;28;20245;-82
2021/08/06 01:28:54;;;;;;;3.93;3.63;;;16.70;99.90;;;;;;5047634;28;20587;-83
2021/08/06 01:31:28;;;;;;;4.37;3.97;;;16.60;99.90;;;;;;5051516;28;20315;-81
2021/08/06 01:34:22;;;;;;;4.53;4.13;;;16.60;99.90;;;;;;5066962;28;20591;-82
2021/08/06 01:36:51;;;;;;;5.67;4.60;;;16.50;99.90;;;;;;5046103;28;20752;-83
2021/08/06 01:39:32;;;;;;;6.70;4.77;;;16.50;99.90;;;;;;5037940;28;20263;-83
2021/08/06 01:42:08;;;;;;;4.80;4.40;;;16.40;99.90;;;;;;5046906;28;20236;-82
2021/08/06 01:44:48;;;;;;;5.87;4.63;;;16.50;99.90;;;;;;5048012;28;20236;-83
2021/08/06 01:47:22;;;;;;;8.17;5.10;;;16.40;99.90;;;;;;5047104;28;20707;-82
2021/08/06 01:50:00;;;;;;;5.50;5.00;;;16.50;99.90;;;;;;5047821;28;20236;-83
2021/08/06 01:52:32;;;;;;;5.93;4.63;;;16.40;99.90;;;;;;5048454;28;20230;-82
2021/08/06 01:55:04;;;;;;;5.70;5.13;;;16.40;99.90;;;;;;5064283;28;20261;-82
2021/08/06 01:57:45;;;;;;;5.93;5.43;;;16.40;99.90;;;;;;5047745;28;20235;-82
2021/08/06 02:00:15;;;;;;;5.73;5.30;;;16.30;99.90;;;;;;5049053;28;20595;-82
2021/08/06 02:02:46;;;;;;;6.03;5.53;;;16.30;99.90;;;;;;5047761;28;20314;-82
2021/08/06 02:05:23;;;;;;;6.60;5.90;;;16.40;99.90;;;;;;5047598;28;20615;-82
2021/08/06 02:07:54;;;;;;;6.93;5.67;;;16.30;99.90;;;;;;5043626;28;20311;-82
2021/08/06 02:10:26;;;;;;;6.50;5.90;;;16.30;99.90;;;;;;5027529;28;20261;-82
2021/08/06 02:12:59;;;;;;;7.10;6.50;;;16.10;99.90;;;;;;5078607;28;20246;-83
2021/08/06 02:15:28;;;;;;;7.47;6.73;;;16.20;99.90;;;;;;5049514;28;20316;-82
2021/08/06 02:17:57;;;;;;;7.30;6.60;;;16.10;99.90;;;;;;5046427;28;20323;-82
2021/08/06 02:20:41;;;;;;;7.53;6.83;;;16.10;99.90;;;;;;5032638;28;20760;-82
2021/08/06 02:23:13;;;;;;;7.10;6.50;;;16.10;99.90;;;;;;5063138;28;20703;-83
2021/08/06 02:25:45;;;;;;;6.67;6.07;;;16.10;99.90;;;;;;5046762;28;20675;-82
2021/08/06 02:28:16;;;;;;;6.77;6.17;;;16.10;99.90;;;;;;5027042;28;20240;-81
2021/08/06 02:30:46;;;;;;;7.10;6.33;;;16.10;99.90;;;;;;5027165;28;20601;-82
2021/08/06 02:33:15;;;;;;;6.67;6.00;;;16.10;99.90;;;;;;5066639;28;20522;-81
2021/08/06 02:35:43;;;;;;;6.63;6.03;;;16.20;99.90;;;;;;5052952;28;20232;-82
2021/08/06 02:38:13;;;;;;;7.03;6.30;;;16.20;99.90;;;;;;5043985;28;20323;-82
2021/08/06 02:40:44;;;;;;;7.00;6.50;;;16.20;99.90;;;;;;5043841;28;20240;-83
2021/08/06 02:43:12;;;;;;;8.17;7.37;;;16.20;99.90;;;;;;5046673;28;20236;-82
2021/08/06 02:45:45;;;;;;;7.50;6.90;;;16.10;99.90;;;;;;5046206;28;20293;-83
2021/08/06 02:48:13;;;;;;;7.27;6.60;;;16.10;99.90;;;;;;5067361;28;20234;-82
2021/08/06 02:50:41;;;;;;;9.60;7.50;;;16.10;99.90;;;;;;5068513;28;20315;-82
2021/08/06 02:53:10;;;;;;;8.07;7.47;;;16.00;99.90;;;;;;5044367;28;20232;-82
2021/08/06 02:55:38;;;;;;;7.90;7.27;;;16.00;99.90;;;;;;5049734;28;20231;-83
2021/08/06 02:58:07;;;;;;;9.13;8.23;;;16.00;99.90;;;;;;5081926;28;20257;-83
2021/08/06 03:00:35;;;;;;;8.53;7.73;;;16.00;99.90;;;;;;5066606;28;20292;-82
2021/08/06 03:03:05;;;;;;;8.73;7.87;;;16.00;99.90;;;;;;5066105;28;20235;-82
2021/08/06 03:05:34;;;;;;;8.37;7.67;;;16.00;99.90;;;;;;5062312;28;20239;-83
2021/08/06 03:08:03;;;;;;;9.10;8.20;;;16.00;99.90;;;;;;5064523;28;20285;-82
2021/08/06 03:10:31;;;;;;;9.10;8.30;;;16.10;99.90;;;;;;5066375;28;20232;-83
2021/08/06 03:12:59;;;;;;;9.87;8.97;;;16.10;99.90;;;;;;5049699;28;20595;-81
2021/08/06 03:15:28;;;;;;;8.90;8.00;;;16.00;99.90;;;;;;5062902;28;20271;-82
2021/08/06 03:17:56;;;;;;;9.27;8.50;;;16.00;99.90;;;;;;5047418;28;20691;-83
2021/08/06 03:20:26;;;;;;;9.10;8.40;;;15.90;99.90;;;;;;5062780;28;20235;-81
2021/08/06 03:22:59;;;;;;;9.70;8.90;;;15.90;99.90;;;;;;5062244;28;20266;-82
2021/08/06 03:25:28;;;;;;;9.43;8.53;;;15.90;99.90;;;;;;5047649;28;20240;-81
2021/08/06 03:27:59;;;;;;;10.20;9.30;;;16.00;99.90;;;;;;5045075;28;20238;-82
2021/08/06 03:30:29;;;;;;;9.70;8.90;;;15.90;99.90;;;;;;5045960;28;20664;-83
2021/08/06 03:33:00;;;;;;;9.10;8.40;;;15.90;99.90;;;;;;5063639;28;20247;-82
2021/08/06 03:35:30;;;;;;;10.37;9.47;;;15.90;99.90;;;;;;5066141;28;20242;-82
2021/08/06 03:37:59;;;;;;;10.13;9.33;;;15.90;99.90;;;;;;5054917;28;20239;-82
2021/08/06 03:40:27;;;;;;;9.90;8.90;;;15.90;99.90;;;;;;5041364;28;20235;-82
2021/08/06 03:42:55;;;;;;;9.27;8.43;;;16.00;99.90;;;;;;5061842;28;20702;-82
2021/08/06 03:45:24;;;;;;;8.57;7.77;;;16.00;99.90;;;;;;5065947;28;20227;-82
2021/08/06 03:47:54;;;;;;;9.07;8.20;;;16.10;99.90;;;;;;5052650;28;20236;-81
2021/08/06 03:50:22;;;;;;;9.83;8.93;;;16.10;99.90;;;;;;5043113;28;20286;-83
2021/08/06 03:52:52;;;;;;;9.07;8.27;;;16.00;99.90;;;;;;5075214;28;20231;-82
2021/08/06 03:55:20;;;;;;;14.53;13.13;;;16.10;99.90;;;;;;5069474;28;20700;-82
2021/08/06 03:57:50;;;;;;;17.00;15.40;;;16.00;99.90;;;;;;5065584;28;20235;-81
2021/08/06 04:00:19;;;;;;;19.37;17.27;;;16.10;99.90;;;;;;5050207;28;20240;-82
2021/08/06 04:02:48;;;;;;;17.23;15.63;;;16.10;99.90;;;;;;5065611;28;20314;-81
2021/08/06 04:05:17;;;;;;;17.53;15.13;;;16.00;99.90;;;;;;5069524;28;20250;-82
2021/08/06 04:07:47;;;;;;;12.80;11.50;;;16.00;99.90;;;;;;5053621;28;20243;-82
2021/08/06 04:10:23;;;;;;;12.07;10.87;;;16.00;99.90;;;;;;5047971;28;20235;-82
2021/08/06 04:12:52;;;;;;;10.73;9.73;;;16.00;99.90;;;;;;5065715;28;20810;-82
2021/08/06 04:15:20;;;;;;;10.10;9.30;;;16.10;99.90;;;;;;5049516;28;20232;-83
2021/08/06 04:17:50;;;;;;;10.20;9.30;;;16.20;99.90;;;;;;5049102;28;20231;-81
2021/08/06 04:20:19;;;;;;;10.67;9.60;;;16.30;99.90;;;;;;5051855;28;20239;-83
2021/08/06 04:22:48;;;;;;;10.23;9.23;;;16.30;99.90;;;;;;5052375;28;20306;-82
2021/08/06 04:25:16;;;;;;;10.37;9.37;;;16.20;99.90;;;;;;5049440;28;20235;-82
2021/08/06 04:27:46;;;;;;;10.70;9.60;;;16.20;99.90;;;;;;5045738;28;20252;-81
2021/08/06 04:30:15;;;;;;;10.33;9.43;;;16.30;99.90;;;;;;5043566;28;20233;-82
2021/08/06 04:32:43;;;;;;;10.03;9.13;;;16.30;99.90;;;;;;5066071;28;20327;-82
2021/08/06 04:35:12;;;;;;;11.30;10.40;;;16.30;99.90;;;;;;5065913;28;20240;-82
2021/08/06 04:37:48;;;;;;;10.07;9.17;;;16.20;99.90;;;;;;5045619;28;20237;-83
2021/08/06 04:40:18;;;;;;;10.37;9.47;;;16.20;99.90;;;;;;5054227;28;20228;-82
2021/08/06 04:42:49;;;;;;;9.80;9.00;;;16.20;99.90;;;;;;5077036;28;20231;-82
2021/08/06 04:45:18;;;;;;;9.93;8.93;;;16.20;99.90;;;;;;5086051;28;20255;-81
2021/08/06 04:47:48;;;;;;;10.03;8.77;;;16.20;99.90;;;;;;5068374;28;20595;-82
2021/08/06 04:50:20;;;;;;;10.97;9.23;;;16.20;99.90;;;;;;5059699;28;20246;-83
2021/08/06 04:52:54;;;;;;;9.80;8.93;;;16.20;99.90;;;;;;5045000;28;20232;-82
2021/08/06 04:55:23;;;;;;;9.20;8.33;;;16.20;99.90;;;;;;5045659;28;20236;-83
2021/08/06 04:57:53;;;;;;;9.73;8.93;;;16.20;99.90;;;;;;5078964;28;20649;-82
2021/08/06 05:00:21;;;;;;;9.33;8.40;;;16.20;99.90;;;;;;5074604;28;20228;-82
2021/08/06 05:02:50;;;;;;;9.13;8.33;;;16.30;99.90;;;;;;5062710;28;20227;-83
2021/08/06 05:05:19;;;;;;;8.90;8.10;;;16.30;99.90;;;;;;5068946;28;20587;-83
2021/08/06 05:07:52;;;;;;;8.53;7.83;;;16.40;99.90;;;;;;5066626;28;20230;-82
2021/08/06 05:10:24;;;;;;;8.13;7.33;;;16.40;99.90;;;;;;5048146;28;20239;-82
2021/08/06 05:12:53;;;;;;;7.90;7.30;;;16.50;99.90;;;;;;5048332;28;20231;-82
2021/08/06 05:15:23;;;;;;;7.60;7.00;;;16.60;99.90;;;;;;5049098;28;20331;-82
2021/08/06 05:17:54;;;;;;;7.70;7.10;;;16.70;99.90;;;;;;5048674;28;20256;-83
2021/08/06 05:20:22;;;;;;;8.20;7.50;;;16.80;99.90;;;;;;5045215;28;20247;-82
2021/08/06 05:22:51;;;;;;;8.27;7.57;;;16.90;99.90;;;;;;5061211;28;20323;-81
2021/08/06 05:25:20;;;;;;;8.37;7.57;;;16.90;99.90;;;;;;5045552;28;20235;-81
2021/08/06 05:27:49;;;;;;;7.37;6.77;;;17.00;99.90;;;;;;5048101;28;20298;-83
2021/08/06 05:30:22;;;;;;;8.20;7.43;;;17.10;99.90;;;;;;5047876;28;20231;-82
2021/08/06 05:32:52;;;;;;;8.00;7.30;;;17.20;99.90;;;;;;5049907;28;20318;-83
2021/08/06 05:35:23;;;;;;;7.63;6.87;;;17.20;99.90;;;;;;5049853;28;20228;-83
2021/08/06 05:37:54;;;;;;;8.00;7.40;;;17.20;99.90;;;;;;5058676;28;20595;-83
2021/08/06 05:40:22;;;;;;;8.87;8.17;;;17.20;99.90;;;;;;5048508;28;20244;-83
2021/08/06 05:42:51;;;;;;;8.60;7.80;;;17.20;99.90;;;;;;5061589;28;20255;-82
2021/08/06 05:45:24;;;;;;;7.90;7.10;;;17.30;99.90;;;;;;5047515;28;20232;-82
2021/08/06 05:47:54;;;;;;;7.77;7.13;;;17.40;99.90;;;;;;5047832;28;20571;-82
2021/08/06 05:50:29;;;;;;;7.70;7.10;;;17.60;99.90;;;;;;5047651;28;20235;-81
2021/08/06 05:52:57;;;;;;;8.47;7.67;;;17.80;99.90;;;;;;5046430;28;20243;-83
2021/08/06 05:55:25;;;;;;;8.37;7.67;;;18.00;99.90;;;;;;5062438;28;20232;-83
2021/08/06 05:58:00;;;;;;;7.70;6.97;;;18.10;99.90;;;;;;5077013;28;20648;-82
2021/08/06 06:00:30;;;;;;;8.30;7.60;;;18.20;99.90;;;;;;5046139;28;20312;-83
2021/08/06 06:03:08;;;;;;;8.33;7.43;;;18.30;99.90;;;;;;5082072;28;20260;-82
2021/08/06 06:06:02;;;;;;;7.43;6.80;;;18.40;99.90;;;;;;5062172;28;20232;-83
2021/08/06 06:08:32;;;;;;;7.10;6.50;;;18.60;99.90;;;;;;5063237;28;20233;-83
2021/08/06 06:11:01;;;;;;;7.37;6.67;;;18.60;99.90;;;;;;5048007;28;20245;-83
2021/08/06 06:13:31;;;;;;;7.37;6.63;;;18.80;99.90;;;;;;5047690;28;20705;-83
2021/08/06 06:16:01;;;;;;;6.20;5.70;;;18.90;99.90;;;;;;5047529;28;20237;-82
2021/08/06 06:18:30;;;;;;;6.67;6.07;;;18.90;99.90;;;;;;5063649;28;20244;-83
2021/08/06 06:21:00;;;;;;;5.90;5.40;;;19.00;99.90;;;;;;5050710;28;20243;-82
2021/08/06 06:23:28;;;;;;;5.57;5.17;;;19.30;99.90;;;;;;5026771;28;20341;-84
2021/08/06 06:25:56;;;;;;;6.20;5.47;;;19.40;99.90;;;;;;5028129;28;20236;-82
2021/08/06 06:28:27;;;;;;;6.73;6.13;;;19.60;99.90;;;;;;5046763;28;20690;-82
2021/08/06 06:30:58;;;;;;;6.10;5.60;;;19.60;99.90;;;;;;5047379;28;20241;-83
2021/08/06 06:33:28;;;;;;;5.53;5.03;;;19.70;99.90;;;;;;5026751;28;20242;-81
2021/08/06 06:35:56;;;;;;;5.67;5.27;;;19.90;99.90;;;;;;5044827;28;20232;-82
2021/08/06 06:38:25;;;;;;;5.10;4.70;;;19.90;99.90;;;;;;5063821;28;20243;-82
2021/08/06 06:40:54;;;;;;;6.00;5.50;;;20.00;99.90;;;;;;5047075;28;20752;-84
2021/08/06 06:43:29;;;;;;;7.20;5.50;;;20.20;99.90;;;;;;5057613;28;20257;-84
2021/08/06 06:46:00;;;;;;;5.67;5.17;;;20.40;99.90;;;;;;5046973;28;20258;-83
2021/08/06 06:48:29;;;;;;;6.23;5.70;;;20.60;99.90;;;;;;5048498;28;20259;-84
2021/08/06 06:50:58;;;;;;;5.93;5.43;;;20.80;99.90;;;;;;5047709;28;20314;-82
2021/08/06 06:53:30;;;;;;;5.37;4.97;;;20.90;99.90;;;;;;5051067;28;20289;-84
2021/08/06 06:55:58;;;;;;;6.30;5.80;;;21.30;99.90;;;;;;5064414;28;20246;-84
2021/08/06 06:58:26;;;;;;;7.17;6.50;;;21.40;99.90;;;;;;5066453;28;20603;-84
2021/08/06 07:00:56;;;;;;;5.97;5.27;;;21.30;99.90;;;;;;5066210;28;20245;-85
2021/08/06 07:03:25;;;;;;;6.70;6.20;;;21.30;99.90;;;;;;5044548;28;20757;-82
2021/08/06 07:05:55;;;;;;;6.63;5.97;;;21.30;99.90;;;;;;5030511;28;20326;-84
2021/08/06 07:08:25;;;;;;;6.77;6.17;;;21.30;99.90;;;;;;5066608;28;20233;-83
2021/08/06 07:10:53;;;;;;;5.43;5.03;;;21.20;99.90;;;;;;5065835;28;20288;-83
2021/08/06 07:13:22;;;;;;;6.53;5.93;;;21.60;99.90;;;;;;5045780;28;20234;-84
2021/08/06 07:15:51;;;;;;;5.83;5.40;;;21.30;99.90;;;;;;5044687;28;20264;-82
2021/08/06 07:18:19;;;;;;;5.70;5.30;;;21.40;99.90;;;;;;5046453;28;20592;-84
2021/08/06 07:20:47;;;;;;;5.80;5.40;;;21.80;99.90;;;;;;5053320;28;20589;-82
2021/08/06 07:23:17;;;;;;;6.00;5.50;;;21.90;99.90;;;;;;5062179;28;20234;-84
2021/08/06 07:25:46;;;;;;;5.40;4.90;;;22.10;99.90;;;;;;5046696;28;20596;-83
2021/08/06 07:28:14;;;;;;;5.67;5.17;;;22.30;99.90;;;;;;5047008;28;20770;-83
2021/08/06 07:30:42;;;;;;;5.30;4.80;;;22.50;99.90;;;;;;5050469;28;20231;-85
2021/08/06 07:33:11;;;;;;;5.40;4.90;;;22.30;99.90;;;;;;5056579;28;20286;-84
2021/08/06 07:35:40;;;;;;;5.77;5.30;;;22.20;99.90;;;;;;5041815;28;20313;-82
2021/08/06 07:38:11;;;;;;;5.53;5.03;;;22.40;99.90;;;;;;5044773;28;20241;-83
2021/08/06 07:40:42;;;;;;;5.50;5.10;;;22.60;99.90;;;;;;5045890;28;20258;-83
2021/08/06 07:43:12;;;;;;;6.00;5.50;;;22.70;99.90;;;;;;5049316;28;20321;-83
2021/08/06 07:45:43;;;;;;;5.07;4.67;;;23.00;99.90;;;;;;5045805;28;20235;-84
2021/08/06 07:48:11;;;;;;;6.10;5.60;;;23.30;99.90;;;;;;5061005;28;20259;-84
2021/08/06 07:50:39;;;;;;;5.73;5.13;;;23.10;99.90;;;;;;5052400;28;20321;-84
2021/08/06 07:53:08;;;;;;;5.90;5.13;;;23.00;99.90;;;;;;5051072;28;20627;-83
2021/08/06 07:55:37;;;;;;;5.07;4.67;;;23.30;99.90;;;;;;5043872;28;20699;-84
2021/08/06 07:58:06;;;;;;;5.10;4.70;;;23.80;99.90;;;;;;5038752;28;20296;-82
2021/08/06 08:00:34;;;;;;;5.73;5.23;;;23.80;99.90;;;;;;5037002;28;20243;-84
2021/08/06 08:03:03;;;;;;;5.27;4.87;;;23.30;99.90;;;;;;5032881;28;20603;-82
2021/08/06 08:05:36;;;;;;;5.30;4.90;;;23.50;99.90;;;;;;5062525;28;20246;-84
2021/08/06 08:08:09;;;;;;;5.00;4.60;;;23.50;99.90;;;;;;5041279;28;20242;-83
2021/08/06 08:10:38;;;;;;;5.33;4.90;;;23.90;99.90;;;;;;5046488;28;20254;-84
2021/08/06 08:13:23;;;;;;;5.03;4.70;;;24.10;99.90;;;;;;5058027;28;20243;-83
2021/08/06 08:15:56;;;;;;;5.10;4.70;;;24.30;99.90;;;;;;5043808;28;20327;-83
2021/08/06 08:18:26;;;;;;;5.60;5.10;;;24.10;99.90;;;;;;5036547;28;20665;-83
2021/08/06 08:20:55;;;;;;;5.07;4.63;;;24.30;99.90;;;;;;5049108;28;20346;-86
2021/08/06 08:23:24;;;;;;;5.13;4.63;;;24.80;99.90;;;;;;5046813;28;20227;-86
2021/08/06 08:25:54;;;;;;;4.93;4.50;;;24.90;99.90;;;;;;5047890;28;20244;-84
2021/08/06 08:28:28;;;;;;;4.80;4.40;;;24.80;99.90;;;;;;5042222;28;20239;-83
2021/08/06 08:30:58;;;;;;;4.40;4.10;;;25.00;99.90;;;;;;5051112;28;20235;-83
2021/08/06 08:33:26;;;;;;;5.27;4.87;;;25.10;99.90;;;;;;5044444;28;20251;-83
2021/08/06 08:35:57;;;;;;;4.80;4.40;;;25.10;99.90;;;;;;5053821;28;20245;-83
2021/08/06 08:38:25;;;;;;;6.13;4.90;;;25.40;99.90;;;;;;5037764;28;20242;-83
2021/08/06 08:40:55;;;;;;;4.53;4.23;;;25.40;99.90;;;;;;5049560;28;20319;-83
2021/08/06 08:43:24;;;;;;;5.00;4.60;;;25.30;99.90;;;;;;5025533;28;20324;-82
2021/08/06 08:45:56;;;;;;;4.53;4.13;;;25.10;99.90;;;;;;5042647;28;20322;-84
2021/08/06 08:48:24;;;;;;;4.47;4.13;;;25.70;99.90;;;;;;5047997;28;20296;-83
2021/08/06 08:50:53;;;;;;;5.00;4.60;;;25.80;99.90;;;;;;5026827;28;20300;-83
2021/08/06 08:53:23;;;;;;;5.07;4.57;;;26.00;99.90;;;;;;5045250;28;20723;-84
2021/08/06 08:55:52;;;;;;;4.53;4.23;;;26.20;99.90;;;;;;5042448;28;20353;-84
2021/08/06 08:58:21;;;;;;;5.03;4.63;;;26.10;99.90;;;;;;5027547;28;20349;-83
2021/08/06 09:00:49;;;;;;;4.60;4.30;;;26.30;99.90;;;;;;5049640;28;20323;-83
2021/08/06 09:03:39;;;;;;;4.27;3.97;;;25.90;99.90;;;;;;5030430;28;20254;-84
2021/08/06 09:06:17;;;;;;;5.00;4.50;;;26.00;99.90;;;;;;5045211;28;20242;-83
2021/08/06 09:08:47;;;;;;;4.93;4.47;;;26.00;99.90;;;;;;5029651;28;20244;-84
2021/08/06 09:11:28;;;;;;;4.90;4.50;;;26.20;99.90;;;;;;5032367;28;20257;-83
2021/08/06 09:14:26;;;;;;;4.70;4.30;;;26.30;99.90;;;;;;5044179;28;20249;-83
2021/08/06 09:16:56;;;;;;;5.10;4.13;;;25.90;99.90;;;;;;5042126;28;20372;-83
2021/08/06 09:19:27;;;;;;;6.37;4.60;;;26.20;99.90;;;;;;5044107;28;20255;-82
2021/08/06 09:22:14;;;;;;;4.50;4.17;;;26.20;99.90;;;;;;5042013;28;20327;-82
2021/08/06 09:25:14;;;;;;;5.13;4.70;;;26.10;99.90;;;;;;5043719;28;20248;-82
2021/08/06 09:28:02;;;;;;;4.43;4.00;;;25.70;99.90;;;;;;4961374;28;20762;-82
2021/08/06 09:30:35;;;;;;;5.17;4.60;;;25.90;99.90;;;;;;5044846;28;20333;-81
2021/08/06 09:33:05;;;;;;;4.37;4.00;;;26.10;99.90;;;;;;5056589;28;20252;-80
2021/08/06 09:35:35;;;;;;;4.77;4.37;;;26.60;99.90;;;;;;5053713;28;20245;-80
2021/08/06 09:38:04;;;;;;;4.50;4.20;;;26.70;99.90;;;;;;5037289;28;20262;-80
2021/08/06 09:40:39;;;;;;;4.70;4.40;;;26.80;99.90;;;;;;5043162;28;20234;-80
2021/08/06 09:43:15;;;;;;;4.40;4.10;;;26.60;99.90;;;;;;5054588;28;20242;-80
2021/08/06 09:45:44;;;;;;;4.50;4.20;;;26.90;99.90;;;;;;5049315;28;20246;-84
2021/08/06 09:48:13;;;;;;;4.97;4.67;;;27.50;99.90;;;;;;5037250;28;20238;-87
2021/08/06 09:50:45;;;;;;;4.73;4.33;;;27.50;99.90;;;;;;5051678;28;20305;-84
2021/08/06 09:53:14;;;;;;;5.67;4.30;;;28.00;99.90;;;;;;5055401;28;20742;-80
2021/08/06 09:55:46;;;;;;;4.77;4.37;;;28.40;99.90;;;;;;5049364;28;20679;-85
2021/08/06 09:58:17;;;;;;;4.87;3.87;;;28.30;99.90;;;;;;5050302;28;20659;-88
2021/08/06 10:00:47;;;;;;;4.30;3.90;;;27.90;99.90;;;;;;5052679;28;20338;-80
2021/08/06 10:03:25;;;;;;;4.30;3.90;;;27.70;99.90;;;;;;5049316;28;20231;-78
2021/08/06 10:06:09;;;;;;;4.47;4.17;;;27.60;99.90;;;;;;5045324;28;20239;-79
2021/08/06 10:08:38;;;;;;;5.53;4.23;;;27.30;99.90;;;;;;5058801;28;20272;-79
2021/08/06 10:11:07;;;;;;;4.63;4.00;;;27.00;99.90;;;;;;5050813;28;20227;-81
2021/08/06 10:13:35;;;;;;;4.10;3.80;;;26.60;99.90;;;;;;5054302;28;20276;-78
2021/08/06 10:16:04;;;;;;;5.70;4.27;;;26.60;99.90;;;;;;5052332;28;20457;-79
2021/08/06 10:18:33;;;;;;;3.80;3.50;;;26.50;99.90;;;;;;5034929;28;20732;-79
2021/08/06 10:21:01;;;;;;;4.07;3.77;;;26.80;99.90;;;;;;5036522;28;20237;-79
2021/08/06 10:23:30;;;;;;;4.80;4.40;;;27.50;99.90;;;;;;5040311;28;20242;-79
2021/08/06 10:26:00;;;;;;;4.23;3.93;;;27.50;99.90;;;;;;5042640;28;20250;-80
2021/08/06 10:28:31;;;;;;;4.20;3.90;;;27.80;99.90;;;;;;5061212;28;20242;-79
2021/08/06 10:31:17;;;;;;;4.90;3.97;;;28.10;99.90;;;;;;5064106;28;20243;-79
2021/08/06 10:34:02;;;;;;;5.10;4.60;;;27.90;99.90;;;;;;5045949;28;20258;-79
2021/08/06 10:36:40;;;;;;;5.03;4.57;;;27.30;99.90;;;;;;5051169;28;20290;-78
2021/08/06 10:39:38;;;;;;;4.87;4.40;;;27.40;99.90;;;;;;5065804;28;20674;-79
2021/08/06 10:42:08;;;;;;;4.60;4.20;;;27.00;99.90;;;;;;5045807;28;20337;-79
2021/08/06 10:44:53;;;;;;;4.27;3.90;;;27.80;99.90;;;;;;5047227;28;20605;-78
2021/08/06 10:47:22;;;;;;;4.40;4.03;;;28.20;99.90;;;;;;5058999;28;20251;-79
2021/08/06 10:50:12;;;;;;;4.20;3.77;;;28.40;99.90;;;;;;5067781;28;20686;-79
2021/08/06 10:52:40;;;;;;;3.60;3.30;;;28.10;99.90;;;;;;5062287;28;20240;-78
2021/08/06 10:55:20;;;;;;;3.50;3.20;;;28.30;99.90;;;;;;5047751;28;20590;-79
2021/08/06 10:57:49;;;;;;;3.40;3.20;;;28.70;99.90;;;;;;5063099;28;20291;-79
2021/08/06 11:00:35;;;;;;;3.40;3.10;;;29.00;99.90;;;;;;5067627;28;20230;-79
2021/08/06 11:03:04;;;;;;;3.27;2.97;;;28.30;99.90;;;;;;5061375;28;20670;-79
2021/08/06 11:05:39;;;;;;;3.30;2.73;;;28.20;99.90;;;;;;5046689;28;20250;-78
2021/08/06 11:08:45;;;;;;;3.17;2.50;;;28.50;99.90;;;;;;5047188;28;20285;-79
2021/08/06 11:11:43;;;;;;;2.80;2.60;;;28.70;99.90;;;;;;5050090;28;20931;-79
2021/08/06 11:14:13;;;;;;;2.90;2.70;;;28.60;99.90;;;;;;5055838;28;20278;-78
2021/08/06 11:17:04;;;;;;;3.50;2.83;;;28.60;99.90;;;;;;5046773;28;20719;-79
2021/08/06 11:19:34;;;;;;;3.40;3.10;;;28.40;99.90;;;;;;5047448;28;20242;-79
2021/08/06 11:22:04;;;;;;;3.40;3.10;;;27.90;99.90;;;;;;5057582;28;20256;-78
2021/08/06 11:24:41;;;;;;;3.87;2.80;;;27.60;99.90;;;;;;5055696;28;20238;-79
2021/08/06 11:27:11;;;;;;;3.97;3.67;;;27.40;99.90;;;;;;5045014;28;20796;-78
2021/08/06 11:29:43;;;;;;;3.87;3.40;;;27.10;99.90;;;;;;5047373;28;20238;-79
2021/08/06 11:32:13;;;;;;;3.43;3.13;;;27.10;99.90;;;;;;5046474;28;20301;-79
2021/08/06 11:34:56;;;;;;;3.60;3.30;;;27.00;99.90;;;;;;5047196;28;20706;-78
2021/08/06 11:37:27;;;;;;;3.40;3.10;;;26.80;99.90;;;;;;5045997;28;20243;-78
2021/08/06 11:40:08;;;;;;;3.53;3.20;;;26.50;99.90;;;;;;5046666;28;20695;-78
2021/08/06 11:42:36;;;;;;;3.30;3.00;;;26.30;99.90;;;;;;5059788;28;20256;-79
2021/08/06 11:45:07;;;;;;;4.37;2.60;;;26.10;99.90;;;;;;5051305;28;20232;-78
2021/08/06 11:47:38;;;;;;;2.80;2.60;;;26.00;99.90;;;;;;5040249;28;20241;-78
2021/08/06 11:50:08;;;;;;;2.43;2.23;;;26.10;99.90;;;;;;5046004;28;20238;-78
2021/08/06 11:52:37;;;;;;;2.40;2.20;;;26.20;99.90;;;;;;5045031;28;20266;-79
2021/08/06 11:55:07;;;;;;;2.30;2.10;;;26.30;99.90;;;;;;5044404;28;20636;-79
2021/08/06 11:57:53;;;;;;;2.27;2.13;;;26.50;99.90;;;;;;5046316;28;20307;-78
2021/08/06 12:00:28;;;;;;;3.67;2.10;;;26.60;99.90;;;;;;5043837;28;20707;-79
2021/08/06 12:03:04;;;;;;;2.30;2.10;;;26.70;99.90;;;;;;5062046;28;20234;-79
2021/08/06 12:05:33;;;;;;;2.30;2.10;;;26.90;99.90;;;;;;5065689;28;20316;-78
2021/08/06 12:08:19;;;;;;;3.17;2.00;;;26.80;99.90;;;;;;5052933;28;20259;-79
2021/08/06 12:10:50;;;;;;;2.40;2.20;;;26.90;99.90;;;;;;5045360;28;20799;-78
2021/08/06 12:13:22;;;;;;;2.27;2.07;;;27.00;99.90;;;;;;5045333;28;20244;-79
2021/08/06 12:16:04;;;;;;;3.57;2.30;;;27.20;99.90;;;;;;5046431;28;20237;-79
2021/08/06 12:18:33;;;;;;;2.20;2.00;;;27.00;99.90;;;;;;5047949;28;20286;-79
2021/08/06 12:21:03;;;;;;;1.90;1.80;;;26.60;99.90;;;;;;5047072;28;20710;-79
2021/08/06 12:23:32;;;;;;;2.23;1.90;;;26.70;99.90;;;;;;5048732;28;20252;-78
2021/08/06 12:26:12;;;;;;;2.97;2.30;;;26.70;99.90;;;;;;5050124;28;20247;-78
2021/08/06 12:28:42;;;;;;;2.27;2.07;;;26.80;99.90;;;;;;5057066;28;20285;-79
2021/08/06 12:31:14;;;;;;;3.10;2.17;;;26.50;99.90;;;;;;5036465;28;20239;-79
2021/08/06 12:33:44;;;;;;;2.87;2.10;;;26.20;99.90;;;;;;5009143;28;20595;-79
2021/08/06 12:36:14;;;;;;;2.43;2.23;;;26.20;99.90;;;;;;5010735;28;20866;-78
2021/08/06 12:38:43;;;;;;;4.57;2.30;;;26.10;99.90;;;;;;5028276;28;20251;-78
2021/08/06 12:41:25;;;;;;;2.20;2.10;;;26.20;99.90;;;;;;5026785;28;20294;-78
2021/08/06 12:44:19;;;;;;;2.93;2.27;;;26.20;99.90;;;;;;5004773;28;20706;-78
2021/08/06 12:47:09;;;;;;;3.47;2.67;;;26.20;99.90;;;;;;5035881;28;20701;-79
2021/08/06 12:49:40;;;;;;;3.40;2.20;;;26.20;99.90;;;;;;5036162;28;20262;-79
2021/08/06 12:52:10;;;;;;;3.40;2.60;;;26.10;99.90;;;;;;5027848;28;20707;-78
2021/08/06 12:54:42;;;;;;;2.50;2.30;;;25.90;99.90;;;;;;5028330;28;20321;-79
2021/08/06 12:57:11;;;;;;;2.77;2.30;;;25.90;99.90;;;;;;5038877;28;20243;-79
2021/08/06 12:59:43;;;;;;;2.73;2.53;;;25.80;99.90;;;;;;5036953;28;20243;-78
2021/08/06 13:02:19;;;;;;;5.00;2.30;;;25.90;99.90;;;;;;5026459;28;20266;-78
2021/08/06 13:04:49;;;;;;;2.30;2.17;;;25.80;99.90;;;;;;5025696;28;20234;-79
2021/08/06 13:07:31;;;;;;;2.70;2.50;;;25.70;99.90;;;;;;5026383;28;20243;-79
2021/08/06 13:10:00;;;;;;;2.67;2.47;;;25.60;99.90;;;;;;5008520;28;20254;-78